Pagrindinis puslapis
METAR-TAF:

METAR-TAF

Oro uostai :

Kiurasao, Nyderlandų Antilai

platuma: 12-12N, ilguma: 068-58W, Aukštis: 9 m

Dabartinis oras

Ataskaita buvo paskelbta 59 minutes, ne 21:00 UTC
Vėjas 10 kt iš Rytų
Temperatūra 28°C
Drėgmė 66%
Slėgis 1012 hPa
Matomumas 10 km arba daugiau

METAR: TNCC 212100Z 10010KT 9999 NCD 28/21 Q1012 NOSIG

Laikas: 17:59 (21:59 UTC)

Prognozė

Ataskaita buvo paskelbta 4 valandos ir 44 minutes, ne 17:15 UTC
Prognozė galioja nuo 21 metu 18 UTC su 22 metu 18 UTC
Vėjas 13 kt iš Rytų
Matomumas 10 km arba daugiau
Mažai debesys ne aukštis 2500 ft
Laikinai
nuo 22 metu 06 UTC su 22 metu 15 UTC
Vėjas 7 kt iš Rytų

TAF: TNCC 211715Z 2118/2218 09013KT 9999 FEW025 TEMPO 2206/2215 10007KT

Orai ataskaitas ir orų prognozės (METAR, TAF).

turimą stotys yra geltonos ir raudonos taškus žemėlapyje.

Perkelti pele per norėdami pamatyti stoties vardą.

Tada spustelėkite, norėdami matyti oro stebėjimo ir prognozės.

Norėdami pakeisti žemėlapį: spustelėkite ant žalios mygtukų su juodo kryžiaus žemyn,; žalią mygtuką su brūkšneliu, jei norite nutolinti; arba žalių rodyklių gretimoms žemėlapius.


METAR-TAF: